Time;durP1;ratioP1;P1;durP2;ratioP2;P2;SDS_P1;SDS_P2;PMS_P1;PMS_P2;Temp;Humidity;BMP_temperature;BMP_pressure;BME280_temperature;BME280_humidity;BME280_pressure;Samples;Min_cycle;Max_cycle;Signal;HPM_P1;HPM_P2
2023/03/12 00:02:12;;;;;;;12.10;3.67;;;;;;;3.61;100.00;100972.13;5060313;28;20028;-50
2023/03/12 00:04:37;;;;;;;18.55;3.92;;;;;;;3.60;100.00;100973.09;5072576;28;20390;-49
2023/03/12 00:07:05;;;;;;;9.07;3.55;;;;;;;3.56;100.00;100965.53;5072491;28;20031;-51
2023/03/12 00:09:33;;;;;;;9.25;3.60;;;;;;;3.61;100.00;100966.81;5072018;28;20025;-48
2023/03/12 00:11:58;;;;;;;10.70;3.63;;;;;;;3.60;100.00;100962.44;5071812;28;20049;-50
2023/03/12 00:14:23;;;;;;;6.78;3.65;;;;;;;3.57;100.00;100954.75;5072292;28;20421;-50
2023/03/12 00:16:49;;;;;;;6.13;3.63;;;;;;;3.59;100.00;100952.78;5077363;28;20086;-50
2023/03/12 00:19:14;;;;;;;9.18;3.67;;;;;;;3.58;100.00;100951.13;5076149;28;20052;-50
2023/03/12 00:21:39;;;;;;;9.13;4.07;;;;;;;3.61;100.00;100939.38;5077414;28;20024;-50
2023/03/12 00:24:06;;;;;;;6.57;3.47;;;;;;;3.70;100.00;100938.53;5084380;28;20500;-49
2023/03/12 00:26:31;;;;;;;15.50;4.60;;;;;;;3.67;100.00;100952.97;5072321;28;20020;-49
2023/03/12 00:28:57;;;;;;;11.07;4.25;;;;;;;3.63;100.00;100948.88;5072637;28;20016;-52
2023/03/12 00:31:30;;;;;;;7.07;3.88;;;;;;;3.62;99.90;100941.88;5081744;28;20035;-53
2023/03/12 00:33:56;;;;;;;6.88;4.10;;;;;;;3.61;99.41;100942.88;5089475;28;20497;-50
2023/03/12 00:36:25;;;;;;;7.63;4.63;;;;;;;3.58;99.67;100932.50;5073317;28;20028;-50
2023/03/12 00:38:51;;;;;;;9.88;4.00;;;;;;;3.62;100.00;100933.06;5072337;28;20033;-50
2023/03/12 00:41:18;;;;;;;16.50;4.60;;;;;;;3.60;100.00;100932.34;5080790;28;20036;-50
2023/03/12 00:43:48;;;;;;;7.75;3.67;;;;;;;3.63;100.00;100916.09;5092120;28;20024;-50
2023/03/12 00:46:13;;;;;;;13.73;4.32;;;;;;;3.57;100.00;100922.81;5080075;28;20038;-51
2023/03/12 00:48:39;;;;;;;7.75;4.55;;;;;;;3.56;100.00;100922.97;5073301;28;20028;-49
2023/03/12 00:51:05;;;;;;;14.00;4.57;;;;;;;3.52;100.00;100919.69;5081170;28;20253;-49
2023/03/12 00:53:30;;;;;;;12.93;4.63;;;;;;;3.46;100.00;100925.56;5071537;28;20029;-53
2023/03/12 00:55:56;;;;;;;9.65;4.20;;;;;;;3.47;100.00;100924.59;5071467;28;20372;-51
2023/03/12 00:58:21;;;;;;;15.32;4.68;;;;;;;3.52;100.00;100930.34;5071492;28;20437;-50
2023/03/12 01:00:46;;;;;;;12.45;4.22;;;;;;;3.56;100.00;100931.78;5071495;28;20033;-50
2023/03/12 01:03:12;;;;;;;7.03;4.03;;;;;;;3.56;100.00;100926.44;5071318;28;20031;-50
2023/03/12 01:05:39;;;;;;;10.50;3.63;;;;;;;3.52;100.00;100933.84;5073840;28;20024;-51
2023/03/12 01:08:08;;;;;;;10.20;4.18;;;;;;;3.52;100.00;100927.69;5071395;28;20037;-51
2023/03/12 01:10:34;;;;;;;7.32;3.80;;;;;;;3.64;100.00;100917.81;5072307;28;20028;-49
2023/03/12 01:12:59;;;;;;;10.18;4.03;;;;;;;3.59;100.00;100902.22;5073695;28;20039;-50
2023/03/12 01:15:24;;;;;;;9.55;4.43;;;;;;;3.62;100.00;100901.13;5070394;28;20364;-50
2023/03/12 01:17:50;;;;;;;8.48;3.65;;;;;;;3.62;100.00;100901.13;5062749;28;20071;-51
2023/03/12 01:20:16;;;;;;;8.38;3.40;;;;;;;3.65;100.00;100904.34;5071035;28;20145;-50
2023/03/12 01:22:42;;;;;;;9.75;4.13;;;;;;;3.64;100.00;100900.00;5071336;28;20028;-50
2023/03/12 01:25:08;;;;;;;8.02;3.75;;;;;;;3.66;100.00;100900.72;5071034;28;20197;-50
2023/03/12 01:27:34;;;;;;;12.65;3.85;;;;;;;3.65;100.00;100888.38;5070794;28;20479;-49
2023/03/12 01:29:59;;;;;;;13.30;3.85;;;;;;;3.73;100.00;100880.53;5070881;28;20036;-53
2023/03/12 01:32:24;;;;;;;11.32;3.60;;;;;;;3.77;100.00;100881.13;5086947;28;20158;-51
2023/03/12 01:34:50;;;;;;;12.68;4.88;;;;;;;3.77;99.71;100880.28;5073988;28;20040;-49
2023/03/12 01:37:15;;;;;;;9.43;3.90;;;;;;;3.73;98.98;100867.22;5068239;28;20133;-50
2023/03/12 01:39:41;;;;;;;11.02;3.72;;;;;;;3.79;98.87;100870.31;5072361;28;20041;-50
2023/03/12 01:42:06;;;;;;;8.98;3.30;;;;;;;3.75;97.60;100867.09;5077089;28;20028;-50
2023/03/12 01:44:50;;;;;;;8.73;3.30;;;;;;;3.80;97.58;100869.38;5070733;28;20036;-50
2023/03/12 01:47:15;;;;;;;12.25;3.78;;;;;;;3.84;97.19;100854.78;5072965;28;20040;-50
2023/03/12 01:49:41;;;;;;;13.90;3.47;;;;;;;3.79;97.54;100857.00;5090937;28;20016;-51
2023/03/12 01:52:08;;;;;;;11.07;3.70;;;;;;;3.73;97.54;100848.59;5072377;28;20471;-49
2023/03/12 01:54:54;;;;;;;12.27;4.10;;;;;;;3.82;97.30;100846.09;5084066;28;20035;-49
2023/03/12 01:57:39;;;;;;;18.08;3.70;;;;;;;3.77;97.45;100843.03;5069756;28;20028;-51
2023/03/12 02:00:12;;;;;;;14.68;3.63;;;;;;;3.76;97.89;100836.00;5063044;28;20071;-50
2023/03/12 02:02:39;;;;;;;11.13;4.20;;;;;;;3.76;97.53;100836.00;5051386;28;20037;-50
2023/03/12 02:05:16;;;;;;;10.50;3.60;;;;;;;3.83;97.24;100829.16;5067687;28;20028;-50
2023/03/12 02:07:41;;;;;;;10.38;2.92;;;;;;;3.76;97.53;100825.34;5055277;28;20115;-49
2023/03/12 02:10:08;;;;;;;10.13;3.28;;;;;;;3.76;97.98;100823.53;5070247;28;20190;-50
2023/03/12 02:12:33;;;;;;;12.10;3.42;;;;;;;3.77;96.76;100825.22;5075660;28;20055;-51
2023/03/12 02:14:58;;;;;;;9.07;3.72;;;;;;;3.78;97.76;100823.41;5075004;28;20029;-50
2023/03/12 02:17:24;;;;;;;13.00;4.25;;;;;;;3.74;97.75;100813.03;5068073;28;20040;-49
2023/03/12 02:20:15;;;;;;;10.95;3.60;;;;;;;3.76;98.67;100809.38;5072658;28;20047;-49
2023/03/12 02:22:41;;;;;;;9.05;3.10;;;;;;;3.79;98.90;100809.97;5086479;28;20024;-49
2023/03/12 02:25:29;;;;;;;6.25;3.10;;;;;;;3.86;100.00;100812.91;5059614;28;20068;-49
2023/03/12 02:27:57;;;;;;;9.20;3.50;;;;;;;3.78;100.00;100813.59;5070211;28;20435;-51
2023/03/12 02:30:23;;;;;;;7.95;2.92;;;;;;;3.83;100.00;100810.50;5074172;28;20078;-49
2023/03/12 02:32:49;;;;;;;11.95;3.28;;;;;;;3.86;100.00;100804.91;5054509;28;20110;-49
2023/03/12 02:35:15;;;;;;;12.48;3.80;;;;;;;3.83;100.00;100800.69;5068622;28;20498;-49
2023/03/12 02:37:49;;;;;;;9.07;3.35;;;;;;;3.76;100.00;100798.72;5069635;28;20391;-49
2023/03/12 02:40:22;;;;;;;12.63;3.67;;;;;;;3.71;100.00;100792.03;5069518;28;20027;-52
2023/03/12 02:42:48;;;;;;;10.70;3.33;;;;;;;3.68;100.00;100786.13;5067970;28;20024;-52
2023/03/12 02:45:13;;;;;;;11.02;3.70;;;;;;;3.64;100.00;100787.38;5069392;28;20671;-51
2023/03/12 02:47:39;;;;;;;9.98;3.65;;;;;;;3.54;100.00;100787.38;5070764;28;20029;-53
2023/03/12 02:50:05;;;;;;;12.88;3.53;;;;;;;3.45;100.00;100775.75;5074865;28;20024;-49
2023/03/12 02:52:34;;;;;;;12.13;4.05;;;;;;;3.39;100.00;100770.94;5069301;28;20270;-52
2023/03/12 02:55:00;;;;;;;14.00;3.53;;;;;;;3.33;100.00;100760.03;5069538;28;20025;-51
2023/03/12 02:57:25;;;;;;;12.70;4.07;;;;;;;3.23;100.00;100767.97;5070921;28;20047;-50
2023/03/12 02:59:50;;;;;;;11.73;3.85;;;;;;;3.18;100.00;100770.19;5069441;28;20552;-49
2023/03/12 03:02:16;;;;;;;9.85;4.22;;;;;;;3.15;100.00;100767.81;5069429;28;20028;-52
2023/03/12 03:04:41;;;;;;;13.88;4.15;;;;;;;3.14;100.00;100752.84;5069233;28;20036;-50
2023/03/12 03:07:07;;;;;;;21.05;4.32;;;;;;;3.11;100.00;100745.13;5069230;28;20105;-51
2023/03/12 03:09:32;;;;;;;14.85;4.05;;;;;;;3.09;100.00;100745.28;5068832;28;20051;-50
2023/03/12 03:11:58;;;;;;;6.22;3.67;;;;;;;3.11;100.00;100746.00;5069299;28;20072;-50
2023/03/12 03:14:23;;;;;;;9.27;4.15;;;;;;;3.13;100.00;100744.00;5068283;28;20512;-51
2023/03/12 03:16:49;;;;;;;11.50;4.10;;;;;;;3.15;100.00;100736.75;5069061;28;20032;-51
2023/03/12 03:19:14;;;;;;;8.43;3.60;;;;;;;3.08;100.00;100740.91;5074839;28;20048;-50
2023/03/12 03:21:40;;;;;;;8.63;3.58;;;;;;;3.06;100.00;100726.94;5077484;28;20317;-49
2023/03/12 03:24:05;;;;;;;10.73;3.53;;;;;;;3.04;100.00;100736.84;5068913;28;20060;-50
2023/03/12 03:26:31;;;;;;;10.80;4.28;;;;;;;3.08;100.00;100728.50;5068957;28;20033;-51
2023/03/12 03:28:57;;;;;;;8.30;3.72;;;;;;;3.12;100.00;100726.38;5071969;28;20110;-50
2023/03/12 03:31:22;;;;;;;9.15;3.97;;;;;;;3.10;100.00;100717.69;5083208;28;20498;-51
2023/03/12 03:33:48;;;;;;;7.07;3.53;;;;;;;3.12;100.00;100714.91;5083027;28;20090;-52
2023/03/12 03:36:14;;;;;;;5.47;3.20;;;;;;;3.12;100.00;100710.44;5068812;28;20032;-53
2023/03/12 03:38:40;;;;;;;10.07;3.30;;;;;;;3.07;100.00;100708.16;5069123;28;20394;-51
2023/03/12 03:41:05;;;;;;;12.10;3.63;;;;;;;3.06;100.00;100708.31;5080733;28;20032;-53
2023/03/12 03:43:31;;;;;;;8.55;3.20;;;;;;;3.11;100.00;100698.13;5085175;28;20029;-52
2023/03/12 03:45:57;;;;;;;13.32;3.60;;;;;;;3.15;100.00;100699.50;5089487;28;20177;-51
2023/03/12 03:48:23;;;;;;;7.28;3.13;;;;;;;3.16;100.00;100698.56;5088950;28;20036;-51
2023/03/12 03:50:48;;;;;;;7.82;3.72;;;;;;;3.12;100.00;100689.16;5079098;28;20390;-48
2023/03/12 03:53:13;;;;;;;10.70;3.55;;;;;;;3.10;100.00;100685.78;5069230;28;20044;-49
2023/03/12 03:55:39;;;;;;;15.07;3.47;;;;;;;3.06;100.00;100679.91;5069074;28;20024;-52
2023/03/12 03:58:05;;;;;;;14.60;4.15;;;;;;;3.07;100.00;100684.25;5069298;28;20048;-51
2023/03/12 04:00:30;;;;;;;12.05;3.67;;;;;;;3.08;100.00;100685.06;5079159;28;20381;-51
2023/03/12 04:02:56;;;;;;;9.07;3.38;;;;;;;3.02;100.00;100688.28;5092888;28;20016;-50
2023/03/12 04:05:21;;;;;;;10.32;4.28;;;;;;;3.02;100.00;100683.81;5092860;28;20039;-50
2023/03/12 04:07:47;;;;;;;14.10;5.00;;;;;;;3.05;100.00;100688.00;5075939;28;20056;-51
2023/03/12 04:10:12;;;;;;;13.27;4.43;;;;;;;3.10;100.00;100682.28;5072143;28;20052;-50
2023/03/12 04:12:37;;;;;;;11.10;4.85;;;;;;;3.10;100.00;100691.09;5072470;28;20526;-52
2023/03/12 04:15:03;;;;;;;13.88;4.78;;;;;;;2.98;100.00;100690.41;5072021;28;20478;-49
2023/03/12 04:17:29;;;;;;;14.07;5.40;;;;;;;2.88;100.00;100691.34;5072402;28;20115;-51
2023/03/12 04:19:54;;;;;;;17.55;5.65;;;;;;;2.82;100.00;100706.88;5071295;28;20044;-49
2023/03/12 04:22:19;;;;;;;17.58;5.40;;;;;;;2.68;100.00;100691.28;5051109;28;20060;-52
2023/03/12 04:24:45;;;;;;;17.85;6.07;;;;;;;2.61;100.00;100684.84;5066410;28;20032;-50
2023/03/12 04:27:10;;;;;;;15.48;5.63;;;;;;;2.43;100.00;100681.97;5072470;28;20029;-50
2023/03/12 04:29:38;;;;;;;13.18;5.40;;;;;;;2.31;100.00;100677.69;5072087;28;20134;-50
2023/03/12 04:32:04;;;;;;;11.07;6.13;;;;;;;2.21;100.00;100667.03;5072092;28;20071;-49
2023/03/12 04:34:29;;;;;;;18.85;7.03;;;;;;;2.17;100.00;100660.31;5071832;28;20434;-48
2023/03/12 04:36:54;;;;;;;15.55;6.68;;;;;;;2.12;100.00;100658.03;5072275;28;20060;-48
2023/03/12 04:39:20;;;;;;;13.43;6.60;;;;;;;2.08;100.00;100656.66;5057390;28;20306;-50
2023/03/12 04:41:45;;;;;;;19.98;7.95;;;;;;;2.08;100.00;100666.41;5071726;28;20367;-49
2023/03/12 04:44:11;;;;;;;20.25;7.60;;;;;;;2.02;100.00;100666.94;5071856;28;20021;-48
2023/03/12 04:46:37;;;;;;;19.23;7.10;;;;;;;2.06;100.00;100669.19;5071210;28;20047;-50
2023/03/12 04:49:03;;;;;;;16.25;7.55;;;;;;;2.04;100.00;100675.63;5072178;28;20431;-49
2023/03/12 04:51:30;;;;;;;15.52;8.77;;;;;;;2.06;100.00;100676.34;5055904;28;20061;-49
2023/03/12 04:53:55;;;;;;;26.50;8.00;;;;;;;2.04;100.00;100680.91;5059583;28;20415;-51
2023/03/12 04:56:21;;;;;;;21.80;8.40;;;;;;;2.19;100.00;100669.00;5071477;28;20230;-49
2023/03/12 04:58:46;;;;;;;19.48;9.20;;;;;;;2.14;100.00;100673.84;5071637;28;20024;-50
2023/03/12 05:01:24;;;;;;;22.98;9.57;;;;;;;2.16;100.00;100674.56;5062089;28;20029;-51
2023/03/12 05:03:50;;;;;;;25.90;9.38;;;;;;;2.16;100.00;100666.59;5070395;28;20024;-52
2023/03/12 05:06:15;;;;;;;23.88;9.65;;;;;;;2.20;100.00;100668.00;5078783;28;20086;-49
2023/03/12 05:08:40;;;;;;;22.92;9.63;;;;;;;2.19;100.00;100663.69;5081654;28;20021;-51
2023/03/12 05:11:06;;;;;;;37.17;11.07;;;;;;;2.16;100.00;100674.56;5070380;28;20039;-51
2023/03/12 05:13:31;;;;;;;21.10;10.00;;;;;;;2.22;100.00;100671.38;5071124;28;20017;-52
2023/03/12 05:15:56;;;;;;;22.73;11.07;;;;;;;2.21;100.00;100667.03;5073537;28;20063;-51
2023/03/12 05:18:22;;;;;;;26.23;10.88;;;;;;;2.22;100.00;100668.72;5069568;28;20029;-49
2023/03/12 05:21:00;;;;;;;28.60;12.55;;;;;;;2.28;100.00;100673.50;5081422;28;20040;-49
2023/03/12 05:23:25;;;;;;;34.88;12.68;;;;;;;2.31;100.00;100670.56;5077846;28;20082;-50
2023/03/12 05:25:51;;;;;;;38.80;13.20;;;;;;;2.33;100.00;100681.91;5071407;28;20552;-50
2023/03/12 05:28:16;;;;;;;29.08;13.02;;;;;;;2.30;100.00;100681.34;5075816;28;20383;-50
2023/03/12 05:30:41;;;;;;;26.08;13.52;;;;;;;2.35;100.00;100684.44;5066918;28;20030;-51
2023/03/12 05:33:07;;;;;;;39.20;15.15;;;;;;;2.32;100.00;100677.59;5070930;28;20033;-53
2023/03/12 05:35:32;;;;;;;31.63;14.05;;;;;;;2.27;100.00;100677.13;5071240;28;20115;-51
2023/03/12 05:37:57;;;;;;;27.50;14.27;;;;;;;2.28;100.00;100673.50;5075720;28;20016;-51
2023/03/12 05:40:23;;;;;;;38.92;16.30;;;;;;;2.26;100.00;100667.47;5070488;28;20398;-50
2023/03/12 05:42:48;;;;;;;37.88;17.30;;;;;;;2.26;100.00;100664.81;5070386;28;20028;-49
2023/03/12 05:45:13;;;;;;;46.35;18.70;;;;;;;2.24;100.00;100669.44;5068499;28;20500;-51
2023/03/12 05:47:39;;;;;;;40.28;19.25;;;;;;;2.28;100.00;100670.00;5069472;28;20040;-50
2023/03/12 05:50:04;;;;;;;59.50;20.23;;;;;;;2.28;100.00;100668.19;5067039;28;20025;-50
2023/03/12 05:52:30;;;;;;;47.30;20.10;;;;;;;2.25;100.00;100672.94;5067554;28;20391;-49
2023/03/12 05:54:55;;;;;;;51.85;23.45;;;;;;;2.24;100.00;100677.41;5068609;28;20036;-48
2023/03/12 05:57:20;;;;;;;53.30;23.80;;;;;;;2.28;100.00;100673.50;5066502;28;20081;-50
2023/03/12 05:59:46;;;;;;;54.28;22.85;;;;;;;2.30;100.00;100676.88;5061230;28;20382;-52
2023/03/12 06:02:11;;;;;;;63.85;26.48;;;;;;;2.31;100.00;100678.53;5068364;28;20387;-50
2023/03/12 06:04:36;;;;;;;67.82;27.27;;;;;;;2.27;100.00;100677.13;5068598;28;20052;-49
2023/03/12 06:07:02;;;;;;;74.70;31.80;;;;;;;2.28;100.00;100678.81;5068566;28;20028;-50
2023/03/12 06:09:27;;;;;;;70.97;30.25;;;;;;;2.38;100.00;100674.38;5066436;28;20033;-49
2023/03/12 06:11:53;;;;;;;89.32;35.75;;;;;;;2.40;100.00;100667.13;5048706;28;20075;-50
2023/03/12 06:14:18;;;;;;;82.18;34.00;;;;;;;2.41;100.00;100674.13;5048724;28;20021;-50
2023/03/12 06:16:43;;;;;;;90.30;35.83;;;;;;;2.51;100.00;100662.69;5048354;28;20283;-49
2023/03/12 06:19:12;;;;;;;85.18;37.25;;;;;;;2.46;100.00;100659.59;5057679;28;20111;-50
2023/03/12 06:21:38;;;;;;;92.88;38.55;;;;;;;2.45;100.00;100653.47;5068893;28;20406;-48
2023/03/12 06:24:03;;;;;;;102.38;41.42;;;;;;;2.50;100.00;100645.94;5067820;28;20024;-48
2023/03/12 06:26:29;;;;;;;110.70;41.92;;;;;;;2.51;100.00;100646.75;5068527;28;20032;-49
2023/03/12 06:28:54;;;;;;;102.90;41.47;;;;;;;2.58;100.00;100647.88;5068026;28;20028;-49
2023/03/12 06:31:20;;;;;;;108.90;42.33;;;;;;;2.61;100.00;100643.16;5068249;28;20046;-49
2023/03/12 06:33:46;;;;;;;103.60;41.22;;;;;;;2.62;100.00;100638.69;5068054;28;20091;-49
2023/03/12 06:36:12;;;;;;;115.35;45.33;;;;;;;2.63;100.00;100643.88;5068584;28;20025;-52
2023/03/12 06:38:37;;;;;;;120.18;44.55;;;;;;;2.70;100.00;100638.00;5067831;28;20445;-50
2023/03/12 06:41:07;;;;;;;120.25;45.58;;;;;;;2.69;100.00;100650.47;5057623;28;20168;-50
2023/03/12 06:43:34;;;;;;;133.63;47.28;;;;;;;2.68;100.00;100635.47;5070342;28;20055;-49
2023/03/12 06:46:00;;;;;;;124.43;46.65;;;;;;;2.74;100.00;100639.41;5068731;28;20248;-49
2023/03/12 06:48:27;;;;;;;142.85;49.47;;;;;;;2.75;100.00;100633.97;5078712;28;20032;-49
2023/03/12 06:50:53;;;;;;;151.13;51.65;;;;;;;2.79;100.00;100637.16;5070201;28;20378;-50
2023/03/12 06:53:19;;;;;;;142.13;50.25;;;;;;;2.86;100.00;100635.66;5068737;28;20032;-50
2023/03/12 06:55:45;;;;;;;140.35;49.95;;;;;;;2.87;100.00;100642.66;5070261;28;20542;-50
2023/03/12 06:58:11;;;;;;;162.68;54.35;;;;;;;2.92;100.00;100652.88;5051615;28;20153;-52
2023/03/12 07:00:36;;;;;;;170.65;57.45;;;;;;;2.96;100.00;100656.94;5064097;28;20432;-50
2023/03/12 07:03:02;;;;;;;175.30;57.00;;;;;;;2.99;100.00;100651.34;5068378;28;20016;-52
2023/03/12 07:05:29;;;;;;;168.10;56.60;;;;;;;3.01;100.00;100641.44;5069824;28;20116;-49
2023/03/12 07:07:54;;;;;;;175.93;56.72;;;;;;;3.06;100.00;100652.50;5070611;28;20063;-50
2023/03/12 07:10:20;;;;;;;191.20;57.13;;;;;;;3.08;100.00;100656.69;5068958;28;20032;-49
2023/03/12 07:12:45;;;;;;;189.88;59.35;;;;;;;3.12;100.00;100659.91;5069097;28;20394;-51
2023/03/12 07:15:11;;;;;;;166.13;54.45;;;;;;;3.16;100.00;100658.66;5068814;28;20016;-50
2023/03/12 07:17:36;;;;;;;182.55;58.05;;;;;;;3.21;100.00;100656.44;5069343;28;20043;-51
2023/03/12 07:20:02;;;;;;;186.98;56.92;;;;;;;3.25;100.00;100655.16;5069629;28;20048;-51
2023/03/12 07:22:27;;;;;;;195.02;57.60;;;;;;;3.32;100.00;100651.94;5069964;28;20039;-54
2023/03/12 07:24:53;;;;;;;194.27;56.63;;;;;;;3.39;100.00;100653.06;5069886;28;20093;-51
2023/03/12 07:27:18;;;;;;;177.98;53.63;;;;;;;3.47;100.00;100647.88;5069860;28;20085;-50
2023/03/12 07:29:44;;;;;;;173.20;50.90;;;;;;;3.53;100.00;100655.31;5069822;28;20025;-50
2023/03/12 07:32:10;;;;;;;171.43;49.65;;;;;;;3.61;100.00;100657.28;5070213;28;20378;-50
2023/03/12 07:34:35;;;;;;;171.85;48.15;;;;;;;3.64;100.00;100656.97;5072535;28;20050;-50
2023/03/12 07:37:00;;;;;;;172.52;48.40;;;;;;;3.70;100.00;100667.88;5073493;28;20025;-52
2023/03/12 07:39:26;;;;;;;160.43;44.90;;;;;;;3.73;100.00;100667.59;5073612;28;20108;-48
2023/03/12 07:41:51;;;;;;;168.18;47.92;;;;;;;3.79;100.00;100676.88;5073676;28;20351;-51
2023/03/12 07:44:17;;;;;;;171.40;48.08;;;;;;;3.83;100.00;100678.25;5073663;28;20114;-50
2023/03/12 07:46:42;;;;;;;179.40;50.67;;;;;;;3.88;100.00;100680.50;5073528;28;20024;-50
2023/03/12 07:49:07;;;;;;;169.45;47.17;;;;;;;3.92;100.00;100680.06;5073592;28;20371;-50
2023/03/12 07:51:33;;;;;;;178.07;46.88;;;;;;;3.96;100.00;100684.09;5073560;28;20024;-49
2023/03/12 07:53:58;;;;;;;183.75;50.38;;;;;;;4.03;100.00;100681.72;5073365;28;20033;-51
2023/03/12 07:56:24;;;;;;;198.95;50.25;;;;;;;4.11;100.00;100686.34;5073335;28;20031;-50
2023/03/12 07:58:49;;;;;;;173.40;50.47;;;;;;;4.17;100.00;100685.75;5073182;28;20024;-50
2023/03/12 08:01:14;;;;;;;205.93;54.08;;;;;;;4.21;100.00;100676.47;5073247;28;20036;-50
2023/03/12 08:03:40;;;;;;;202.57;55.75;;;;;;;4.29;100.00;100691.72;5073344;28;20436;-51
2023/03/12 08:06:05;;;;;;;194.88;51.92;;;;;;;4.36;100.00;100690.19;5069424;28;20017;-49
2023/03/12 08:08:31;;;;;;;208.68;56.80;;;;;;;4.45;100.00;100689.31;5052518;28;20036;-49
2023/03/12 08:10:58;;;;;;;209.10;56.45;;;;;;;4.53;100.00;100692.09;5053052;28;20437;-50
2023/03/12 08:13:23;;;;;;;199.63;55.63;;;;;;;4.60;100.00;100687.00;5052688;28;20025;-50
2023/03/12 08:15:50;;;;;;;176.95;51.55;;;;;;;4.71;100.00;100694.78;5053164;28;20533;-49
2023/03/12 08:18:16;;;;;;;197.48;53.60;;;;;;;4.79;100.00;100688.72;5053248;28;20512;-49
2023/03/12 08:20:41;;;;;;;199.82;52.92;;;;;;;4.89;100.00;100694.84;5052867;28;20135;-49
2023/03/12 08:23:06;;;;;;;205.50;52.40;;;;;;;5.01;100.00;100704.34;5053009;28;20487;-49
2023/03/12 08:25:32;;;;;;;209.02;53.15;;;;;;;5.12;100.00;100707.78;5052873;28;20473;-48
2023/03/12 08:27:57;;;;;;;180.75;47.38;;;;;;;5.26;100.00;100701.94;5053238;28;20102;-51
2023/03/12 08:30:22;;;;;;;182.98;46.63;;;;;;;5.39;100.00;100704.22;5053276;28;20031;-50
2023/03/12 08:32:48;;;;;;;178.00;45.13;;;;;;;5.52;100.00;100719.88;5052910;28;20025;-51
2023/03/12 08:35:13;;;;;;;178.88;41.58;;;;;;;5.63;100.00;100712.47;5052740;28;20378;-51
2023/03/12 08:37:40;;;;;;;155.13;38.00;;;;;;;5.76;100.00;100714.75;5052614;28;20037;-50
2023/03/12 08:40:11;;;;;;;149.43;37.45;;;;;;;5.81;100.00;100720.47;5052318;28;20101;-50
2023/03/12 08:42:38;;;;;;;147.35;34.10;;;;;;;5.96;100.00;100725.31;5052599;28;20057;-50
2023/03/12 08:45:04;;;;;;;145.98;30.10;;;;;;;6.06;100.00;100718.03;5051360;28;20090;-50
2023/03/12 08:47:29;;;;;;;145.18;29.60;;;;;;;6.15;100.00;100722.44;5052633;28;20028;-51
2023/03/12 08:49:54;;;;;;;121.80;23.90;;;;;;;6.28;100.00;100716.69;5052581;28;20025;-49
2023/03/12 08:52:20;;;;;;;107.85;23.15;;;;;;;6.38;100.00;100712.91;5052606;28;20153;-49
2023/03/12 08:54:45;;;;;;;107.63;20.90;;;;;;;6.54;100.00;100719.34;5052576;28;20025;-51
2023/03/12 08:57:10;;;;;;;90.95;19.00;;;;;;;6.63;100.00;100718.38;5052230;28;20030;-52
2023/03/12 08:59:36;;;;;;;94.22;18.95;;;;;;;6.71;100.00;100718.41;5052127;28;20420;-51
2023/03/12 09:02:01;;;;;;;95.07;16.92;;;;;;;6.76;100.00;100716.09;5052421;28;20045;-53
2023/03/12 09:04:27;;;;;;;90.50;16.88;;;;;;;6.84;100.00;100722.50;5052231;28;20021;-52
2023/03/12 09:06:52;;;;;;;108.55;15.48;;;;;;;6.92;100.00;100727.88;5051797;28;20025;-50
2023/03/12 09:09:17;;;;;;;89.20;13.48;;;;;;;7.01;100.00;100726.94;5052339;28;20451;-50
2023/03/12 09:11:43;;;;;;;103.82;14.45;;;;;;;7.11;100.00;100735.66;5052046;28;20032;-51
2023/03/12 09:14:08;;;;;;;81.35;12.25;;;;;;;7.18;100.00;100731.31;5052419;28;20167;-51
2023/03/12 09:16:34;;;;;;;80.68;11.60;;;;;;;7.28;100.00;100730.34;5051687;28;20174;-50
2023/03/12 09:18:59;;;;;;;81.50;10.75;;;;;;;7.33;100.00;100744.09;5051728;28;20048;-53
2023/03/12 09:21:25;;;;;;;93.78;10.15;;;;;;;7.35;100.00;100742.09;5051884;28;20033;-51
2023/03/12 09:23:50;;;;;;;107.00;10.90;;;;;;;7.33;100.00;100744.09;5051647;28;20048;-51
2023/03/12 09:26:16;;;;;;;73.10;10.45;;;;;;;7.39;100.00;100738.06;5052144;28;20537;-51
2023/03/12 09:28:43;;;;;;;72.50;10.30;;;;;;;7.41;100.00;100744.09;5051588;28;20107;-51
2023/03/12 09:31:08;;;;;;;84.28;10.80;;;;;;;7.40;100.00;100739.75;5051626;28;20048;-54
2023/03/12 09:33:34;;;;;;;84.60;10.07;;;;;;;7.40;100.00;100755.84;5051584;28;20052;-51
2023/03/12 09:36:00;;;;;;;82.18;10.00;;;;;;;7.40;100.00;100756.66;5051547;28;20140;-52
2023/03/12 09:38:26;;;;;;;73.57;8.50;;;;;;;7.53;100.00;100750.84;5051653;28;20037;-52
2023/03/12 09:40:52;;;;;;;90.55;10.15;;;;;;;7.56;100.00;100761.22;5051750;28;20043;-52
2023/03/12 09:43:32;;;;;;;81.57;9.45;;;;;;;7.65;100.00;100764.75;5051513;28;20049;-50
2023/03/12 09:45:58;;;;;;;71.53;9.73;;;;;;;7.76;100.00;100761.75;5051371;28;20025;-49
2023/03/12 09:48:32;;;;;;;72.25;10.50;;;;;;;7.80;100.00;100767.63;5049980;28;20036;-49
2023/03/12 09:51:01;;;;;;;79.13;10.40;;;;;;;7.89;100.00;100758.56;5050763;28;20519;-50
2023/03/12 09:53:40;;;;;;;74.53;8.18;;;;;;;7.93;100.00;100762.59;5051117;28;20471;-52
2023/03/12 09:56:12;;;;;;;71.55;7.97;;;;;;;8.03;100.00;100755.25;5066288;28;20116;-52
2023/03/12 09:58:38;;;;;;;85.57;10.63;;;;;;;7.98;100.00;100754.91;5057240;28;20016;-52
2023/03/12 10:01:13;;;;;;;66.50;7.05;;;;;;;8.07;100.00;100745.00;5068179;28;20378;-55
2023/03/12 10:03:53;;;;;;;85.63;8.15;;;;;;;8.10;100.00;100742.00;5061461;28;20060;-52
2023/03/12 10:06:20;;;;;;;65.43;7.00;;;;;;;8.26;100.00;100746.50;5069243;28;20540;-53
2023/03/12 10:09:07;;;;;;;87.75;8.20;;;;;;;8.44;100.00;100752.53;5068844;28;20493;-51
2023/03/12 10:11:54;;;;;;;84.05;9.52;;;;;;;8.45;100.00;100745.34;5063768;28;20036;-51
2023/03/12 10:14:31;;;;;;;77.10;7.75;;;;;;;8.44;100.00;100739.13;5064626;28;20033;-50
2023/03/12 10:17:39;;;;;;;95.10;8.80;;;;;;;8.45;100.00;100732.78;5069066;28;20039;-51
2023/03/12 10:20:26;;;;;;;65.05;7.57;;;;;;;8.48;100.00;100727.06;5053321;28;20075;-51
2023/03/12 10:23:10;;;;;;;77.20;9.85;;;;;;;8.47;100.00;100725.38;5057551;28;20028;-50
2023/03/12 10:25:39;;;;;;;72.82;7.40;;;;;;;8.45;100.00;100711.31;5061284;28;20060;-50
2023/03/12 10:28:24;;;;;;;57.97;6.75;;;;;;;8.43;100.00;100709.81;5064671;28;20037;-53
2023/03/12 10:31:05;;;;;;;81.30;7.22;;;;;;;8.35;100.00;100703.44;5070011;28;20068;-54
2023/03/12 10:33:58;;;;;;;84.03;8.60;;;;;;;8.29;100.00;100705.94;5070237;28;20055;-51
2023/03/12 10:36:38;;;;;;;74.40;8.07;;;;;;;8.28;100.00;100704.28;5067742;28;20124;-53
2023/03/12 10:39:12;;;;;;;86.45;6.93;;;;;;;8.37;100.00;100711.28;5069774;28;20116;-51
2023/03/12 10:41:37;;;;;;;68.43;7.90;;;;;;;8.32;100.00;100709.13;5067872;28;20027;-50
2023/03/12 10:44:06;;;;;;;71.57;6.53;;;;;;;8.35;100.00;100721.38;5069628;28;20020;-51
2023/03/12 10:46:35;;;;;;;59.13;6.72;;;;;;;8.34;100.00;100717.00;5069104;28;20032;-52
2023/03/12 10:49:22;;;;;;;77.78;8.25;;;;;;;8.43;100.00;100720.56;5069522;28;20032;-52
2023/03/12 10:52:15;;;;;;;64.75;6.30;;;;;;;8.39;100.00;100730.75;5069502;28;20092;-51
2023/03/12 10:54:43;;;;;;;62.38;7.55;;;;;;;8.39;100.00;100733.44;5069050;28;20021;-54
2023/03/12 10:57:09;;;;;;;59.90;5.60;;;;;;;8.40;100.00;100745.88;5069658;28;20059;-50
2023/03/12 10:59:37;;;;;;;85.05;8.13;;;;;;;8.33;100.00;100750.19;5069674;28;20040;-53
2023/03/12 11:02:23;;;;;;;;;;;;;;;8.39;100.00;100762.09;5070249;28;20097;-53
2023/03/12 11:04:52;;;;;;;81.60;7.18;;;;;;;8.49;100.00;100755.56;5068979;28;19916;-51
2023/03/12 11:07:26;;;;;;;71.25;7.95;;;;;;;8.54;100.00;100745.16;5069325;28;20028;-50
2023/03/12 11:10:12;;;;;;;67.13;6.50;;;;;;;8.62;100.00;100748.84;5069224;28;20078;-51
2023/03/12 11:12:38;;;;;;;62.97;8.55;;;;;;;8.68;100.00;100745.47;5069308;28;20060;-49
2023/03/12 11:15:28;;;;;;;64.22;5.97;;;;;;;8.76;100.00;100743.56;5069233;28;20013;-52
2023/03/12 11:18:20;;;;;;;73.18;7.40;;;;;;;8.91;100.00;100746.38;5068835;28;20336;-53